Time;durP1;ratioP1;P1;durP2;ratioP2;P2;SDS_P1;SDS_P2;PMS_P1;PMS_P2;Temp;Humidity;BMP_temperature;BMP_pressure;BME280_temperature;BME280_humidity;BME280_pressure;Samples;Min_cycle;Max_cycle;Signal;HPM_P1;HPM_P2
2023/10/11 00:00:45;;;;;;;14.23;6.77;;;;;;;18.12;66.55;100824.44;4987818;28;20199;-71
2023/10/11 00:03:17;;;;;;;20.20;7.13;;;;;;;18.14;66.38;100822.41;4983281;28;20233;-71
2023/10/11 00:05:47;;;;;;;18.13;7.80;;;;;;;18.13;66.26;100825.28;4990650;28;20246;-72
2023/10/11 00:08:17;;;;;;;15.70;6.83;;;;;;;18.07;66.61;100821.53;4991953;28;20249;-72
2023/10/11 00:10:53;;;;;;;16.73;7.43;;;;;;;18.02;67.19;100822.09;4990667;28;20206;-71
2023/10/11 00:13:24;;;;;;;20.57;7.00;;;;;;;17.96;67.96;100824.69;4995894;28;20198;-71
2023/10/11 00:15:53;;;;;;;14.50;7.23;;;;;;;17.92;67.98;100818.03;4999640;28;20202;-70
2023/10/11 00:18:22;;;;;;;17.27;7.33;;;;;;;17.93;67.81;100820.53;5001322;28;20260;-75
2023/10/11 00:20:52;;;;;;;16.53;7.80;;;;;;;17.96;67.63;100827.34;4992072;28;20202;-71
2023/10/11 00:23:22;;;;;;;18.23;7.27;;;;;;;17.94;67.47;100818.69;4986981;28;20300;-71
2023/10/11 00:25:52;;;;;;;16.13;8.07;;;;;;;17.96;67.84;100814.78;4992218;28;20210;-71
2023/10/11 00:28:23;;;;;;;14.50;7.30;;;;;;;17.96;68.08;100814.78;4986304;28;20256;-74
2023/10/11 00:30:59;;;;;;;17.93;7.53;;;;;;;18.00;67.85;100804.50;4989302;28;20865;-76
2023/10/11 00:33:27;;;;;;;13.73;7.17;;;;;;;17.95;68.06;100806.91;4986971;28;20587;-71
2023/10/11 00:36:06;;;;;;;16.73;8.00;;;;;;;17.82;68.39;100806.75;4984196;28;20911;-73
2023/10/11 00:38:46;;;;;;;16.37;7.23;;;;;;;17.67;69.04;100804.94;4982541;28;20212;-75
2023/10/11 00:41:17;;;;;;;17.53;8.03;;;;;;;17.63;68.82;100800.13;4979645;28;20209;-72
2023/10/11 00:43:49;;;;;;;14.83;7.37;;;;;;;17.71;68.47;100791.13;4979651;28;20772;-73
2023/10/11 00:46:22;;;;;;;18.00;7.37;;;;;;;17.70;68.50;100797.50;4979177;28;20209;-71
2023/10/11 00:48:54;;;;;;;21.67;7.80;;;;;;;17.62;68.47;100796.59;4981027;28;20209;-74
2023/10/11 00:51:24;;;;;;;19.93;7.57;;;;;;;17.56;68.80;100797.31;4980792;28;20537;-71
2023/10/11 00:53:54;;;;;;;16.63;7.00;;;;;;;17.49;69.61;100787.53;4977836;28;20249;-71
2023/10/11 00:56:26;;;;;;;15.00;7.20;;;;;;;17.53;69.07;100792.31;4983830;28;20661;-73
2023/10/11 00:58:55;;;;;;;20.80;7.80;;;;;;;17.52;69.28;100789.81;4985513;28;20203;-72
2023/10/11 01:01:25;;;;;;;15.87;7.07;;;;;;;17.47;69.40;100785.03;4982354;28;23480;-72
2023/10/11 01:03:54;;;;;;;17.40;7.50;;;;;;;17.37;69.56;100787.16;4987887;28;20242;-74
2023/10/11 01:06:25;;;;;;;16.47;8.10;;;;;;;17.42;69.57;100779.38;4987082;28;20329;-73
2023/10/11 01:08:53;;;;;;;17.03;7.70;;;;;;;17.32;69.79;100784.19;4985811;28;20686;-75
2023/10/11 01:11:22;;;;;;;21.47;8.43;;;;;;;17.24;69.98;100773.53;4981170;28;20227;-74
2023/10/11 01:13:51;;;;;;;18.40;8.27;;;;;;;17.15;70.23;100772.78;4989356;28;20213;-73
2023/10/11 01:16:24;;;;;;;17.03;8.40;;;;;;;17.08;70.82;100769.19;4983642;28;20293;-77
2023/10/11 01:18:54;;;;;;;18.40;8.17;;;;;;;17.05;71.32;100777.63;4983739;28;20678;-72
2023/10/11 01:21:32;;;;;;;17.23;7.33;;;;;;;17.04;71.50;100770.59;4991869;28;20206;-79
2023/10/11 01:24:00;;;;;;;24.73;7.83;;;;;;;17.03;71.38;100774.28;4991219;28;20280;-72
2023/10/11 01:26:27;;;;;;;24.90;8.73;;;;;;;17.06;71.32;100773.91;4987155;28;20562;-72
2023/10/11 01:28:56;;;;;;;18.53;7.50;;;;;;;17.01;71.78;100772.78;4984744;28;20214;-72
2023/10/11 01:31:24;;;;;;;20.03;8.23;;;;;;;17.00;72.00;100769.28;4994932;28;20204;-72
2023/10/11 01:33:52;;;;;;;25.33;8.67;;;;;;;16.97;71.99;100766.97;4985764;28;20202;-71
2023/10/11 01:36:21;;;;;;;16.27;7.60;;;;;;;17.02;71.92;100771.78;4989742;28;20202;-71
2023/10/11 01:38:51;;;;;;;19.77;7.83;;;;;;;16.95;72.52;100770.84;4986053;28;20261;-72
2023/10/11 01:41:21;;;;;;;17.00;7.70;;;;;;;16.88;73.11;100766.22;4985058;28;20198;-74
2023/10/11 01:43:50;;;;;;;21.03;7.77;;;;;;;16.85;73.09;100769.25;4988450;28;20231;-74
2023/10/11 01:46:26;;;;;;;17.47;8.33;;;;;;;16.82;73.12;100761.56;4983178;28;20212;-72
2023/10/11 01:48:55;;;;;;;22.07;7.90;;;;;;;16.80;73.53;100763.59;4985673;28;20206;-71
2023/10/11 01:51:26;;;;;;;17.13;7.80;;;;;;;16.78;73.59;100759.44;4989475;28;20257;-75
2023/10/11 01:53:56;;;;;;;21.53;8.33;;;;;;;16.76;73.84;100756.94;4982784;28;20297;-72
2023/10/11 01:56:25;;;;;;;17.63;8.90;;;;;;;16.72;74.52;100755.63;4981476;28;20647;-72
2023/10/11 01:58:53;;;;;;;18.40;8.20;;;;;;;16.71;74.46;100759.31;4981130;28;20277;-78
2023/10/11 02:01:25;;;;;;;16.73;8.00;;;;;;;16.71;74.63;100758.53;4995396;28;20225;-73
2023/10/11 02:03:54;;;;;;;19.63;8.23;;;;;;;16.78;73.75;100754.94;4980000;28;20229;-72
2023/10/11 02:06:23;;;;;;;20.70;8.83;;;;;;;16.88;73.68;100752.00;4987867;28;20277;-73
2023/10/11 02:08:51;;;;;;;18.50;8.20;;;;;;;16.81;73.78;100749.19;4987098;28;20218;-74
2023/10/11 02:11:24;;;;;;;18.10;7.87;;;;;;;16.71;74.18;100745.13;4985489;28;20687;-73
2023/10/11 02:13:52;;;;;;;17.23;8.37;;;;;;;16.67;74.64;100746.50;4994824;28;20253;-72
2023/10/11 02:16:21;;;;;;;17.27;8.10;;;;;;;16.63;74.88;100756.72;4987630;28;20206;-74
2023/10/11 02:18:58;;;;;;;18.97;8.07;;;;;;;16.63;74.81;100755.88;4989495;28;20866;-73
2023/10/11 02:21:27;;;;;;;22.13;7.90;;;;;;;16.59;75.03;100749.22;4989466;28;20189;-72
2023/10/11 02:23:56;;;;;;;19.87;8.30;;;;;;;16.55;75.15;100754.06;4993394;28;20273;-73
2023/10/11 02:26:29;;;;;;;21.53;7.97;;;;;;;16.59;74.85;100750.03;4989142;28;20654;-72
2023/10/11 02:29:00;;;;;;;20.63;8.80;;;;;;;16.59;74.89;100738.50;4994751;28;20205;-73
2023/10/11 02:31:31;;;;;;;14.13;7.27;;;;;;;16.57;74.92;100749.38;4991901;28;20205;-72
2023/10/11 02:34:12;;;;;;;20.13;8.77;;;;;;;16.62;74.45;100754.25;4998063;28;20198;-71
2023/10/11 02:36:42;;;;;;;22.20;7.40;;;;;;;16.75;73.89;100755.28;4986761;28;20247;-71
2023/10/11 02:39:17;;;;;;;20.33;7.73;;;;;;;16.78;73.46;100748.75;4992051;28;20561;-71
2023/10/11 02:41:50;;;;;;;17.53;8.50;;;;;;;16.67;73.92;100755.34;4993011;28;20249;-72
2023/10/11 02:44:22;;;;;;;20.53;8.40;;;;;;;16.56;74.50;100750.41;4990697;28;20238;-70
2023/10/11 02:46:51;;;;;;;16.73;8.83;;;;;;;16.54;74.34;100739.84;4989885;28;20210;-71
2023/10/11 02:49:21;;;;;;;15.03;7.53;;;;;;;16.48;74.67;100748.63;4992437;28;20234;-71
2023/10/11 02:51:55;;;;;;;15.63;8.07;;;;;;;16.54;74.44;100747.06;4994085;28;20274;-77
2023/10/11 02:54:26;;;;;;;23.50;8.23;;;;;;;16.60;74.27;100743.69;4994775;28;20212;-73
2023/10/11 02:56:57;;;;;;;20.30;7.70;;;;;;;16.59;73.86;100743.84;4990818;28;20198;-72
2023/10/11 02:59:25;;;;;;;21.67;8.90;;;;;;;16.51;74.29;100747.44;4987052;28;20257;-78
2023/10/11 03:02:00;;;;;;;19.13;7.80;;;;;;;16.42;74.51;100751.19;4988587;28;20247;-73
2023/10/11 03:04:29;;;;;;;18.13;7.77;;;;;;;16.36;74.75;100750.03;4988001;28;20226;-74
2023/10/11 03:07:00;;;;;;;16.33;7.93;;;;;;;16.37;74.89;100745.53;4992928;28;20198;-71
2023/10/11 03:09:28;;;;;;;23.20;8.23;;;;;;;16.45;74.62;100753.47;4992543;28;20202;-77
2023/10/11 03:12:05;;;;;;;23.00;7.93;;;;;;;16.44;74.29;100754.53;4990080;28;20604;-74
2023/10/11 03:14:41;;;;;;;18.07;8.47;;;;;;;16.40;74.50;100750.53;4996316;28;20201;-71
2023/10/11 03:17:13;;;;;;;18.43;7.90;;;;;;;16.43;74.27;100747.50;4985012;28;20292;-71
2023/10/11 03:19:42;;;;;;;19.17;8.50;;;;;;;16.38;74.84;100744.50;4991532;28;20656;-79
2023/10/11 03:22:11;;;;;;;19.10;7.67;;;;;;;16.37;74.75;100745.53;4993567;28;20198;-76
2023/10/11 03:24:40;;;;;;;17.43;8.03;;;;;;;16.41;74.89;100733.47;4987797;28;20324;-72
2023/10/11 03:27:13;;;;;;;19.07;9.07;;;;;;;16.43;74.73;100726.09;4988172;28;20237;-70
2023/10/11 03:29:41;;;;;;;17.73;8.43;;;;;;;16.39;74.83;100730.13;4987719;28;20549;-71
2023/10/11 03:32:10;;;;;;;19.00;8.40;;;;;;;16.43;74.78;100734.13;4992183;28;20208;-72
2023/10/11 03:34:38;;;;;;;26.40;9.57;;;;;;;16.48;74.26;100731.72;4989729;28;20202;-73
2023/10/11 03:37:10;;;;;;;21.00;9.03;;;;;;;16.44;74.17;100725.91;4990821;28;20598;-70
2023/10/11 03:39:41;;;;;;;19.27;8.37;;;;;;;16.39;74.41;100724.78;4990513;28;20772;-71
2023/10/11 03:42:14;;;;;;;19.83;8.07;;;;;;;16.32;74.57;100730.00;4992452;28;20230;-70
2023/10/11 03:44:46;;;;;;;20.70;8.40;;;;;;;16.26;75.35;100732.59;4990706;28;20312;-71
2023/10/11 03:47:15;;;;;;;18.73;7.97;;;;;;;16.24;75.26;100729.25;4992087;28;20895;-79
2023/10/11 03:49:52;;;;;;;17.87;8.13;;;;;;;16.21;75.38;100729.59;4988253;28;20241;-71
2023/10/11 03:52:22;;;;;;;19.17;8.57;;;;;;;16.13;75.82;100727.81;4988923;28;20892;-72
2023/10/11 03:54:54;;;;;;;16.87;8.53;;;;;;;16.17;75.65;100727.28;4986673;28;20242;-78
2023/10/11 03:57:23;;;;;;;15.33;7.47;;;;;;;16.20;75.38;100731.44;4988945;28;20226;-74
2023/10/11 03:59:51;;;;;;;21.93;8.53;;;;;;;16.32;75.29;100731.84;4988064;28;20206;-74
2023/10/11 04:02:23;;;;;;;19.40;8.43;;;;;;;16.32;74.75;100731.84;4996134;28;20202;-71
2023/10/11 04:04:50;;;;;;;21.73;8.60;;;;;;;16.29;74.69;100726.84;4993346;28;20229;-73
2023/10/11 04:07:22;;;;;;;17.37;8.43;;;;;;;16.18;75.42;100726.25;4988366;28;20285;-72
2023/10/11 04:09:50;;;;;;;23.30;8.47;;;;;;;16.16;75.36;100719.44;4992311;28;20597;-77
2023/10/11 04:12:23;;;;;;;18.83;8.47;;;;;;;16.19;75.25;100727.09;4986382;28;20289;-78
2023/10/11 04:14:52;;;;;;;24.00;9.23;;;;;;;16.10;75.77;100723.63;4990986;28;20577;-72
2023/10/11 04:17:26;;;;;;;20.10;8.47;;;;;;;16.04;76.12;100721.69;4986889;28;20209;-81
2023/10/11 04:20:17;;;;;;;24.80;9.17;;;;;;;16.09;76.15;100723.84;4989991;28;20220;-73
2023/10/11 04:22:50;;;;;;;16.43;8.73;;;;;;;16.25;75.24;100729.06;4987898;28;20313;-72
2023/10/11 04:25:22;;;;;;;28.03;9.10;;;;;;;16.32;74.91;100711.28;4985682;28;20307;-71
2023/10/11 04:27:56;;;;;;;21.10;8.90;;;;;;;16.25;74.96;100709.50;4997090;28;20200;-70
2023/10/11 04:30:27;;;;;;;18.93;9.23;;;;;;;16.29;74.63;100710.78;4986332;28;20199;-71
2023/10/11 04:32:57;;;;;;;26.13;8.67;;;;;;;16.37;74.58;100713.41;4978658;28;20747;-74
2023/10/11 04:35:36;;;;;;;21.37;8.90;;;;;;;16.39;74.26;100712.22;4985330;28;20199;-71
2023/10/11 04:38:05;;;;;;;23.00;9.40;;;;;;;16.44;73.96;100720.56;4987868;28;20743;-71
2023/10/11 04:40:41;;;;;;;18.13;8.00;;;;;;;16.45;73.56;100713.34;4991334;28;20257;-71
2023/10/11 04:43:20;;;;;;;19.77;8.37;;;;;;;16.42;74.00;100719.06;4987016;28;20736;-72
2023/10/11 04:45:51;;;;;;;17.57;8.20;;;;;;;16.32;74.46;100711.28;4988718;28;20250;-83
2023/10/11 04:48:33;;;;;;;20.17;8.80;;;;;;;16.40;74.10;100711.22;4985976;28;20566;-72
2023/10/11 04:51:07;;;;;;;22.73;8.07;;;;;;;16.39;74.03;100708.72;4989699;28;20245;-72
2023/10/11 04:53:47;;;;;;;18.67;8.07;;;;;;;16.37;73.44;100711.56;4991998;28;20704;-73
2023/10/11 04:59:02;;;;;;;21.67;9.10;;;;;;;16.18;74.08;100715.56;4986837;28;20237;-71
2023/10/11 05:01:45;;;;;;;23.37;9.03;;;;;;;16.05;74.27;100709.97;4990222;28;20647;-72
2023/10/11 05:04:14;;;;;;;16.53;8.17;;;;;;;15.89;75.46;100722.63;4988658;28;20312;-72
2023/10/11 05:06:43;;;;;;;20.87;9.53;;;;;;;15.96;75.32;100729.75;4987176;28;20222;-70
2023/10/11 05:09:15;;;;;;;25.77;9.77;;;;;;;16.00;74.73;100720.38;4983109;28;20533;-72
2023/10/11 05:11:44;;;;;;;26.30;9.53;;;;;;;15.91;75.38;100718.78;4992515;28;20302;-77
2023/10/11 05:16:59;;;;;;;20.03;9.37;;;;;;;15.67;76.69;100724.22;4986179;28;20206;-73
2023/10/11 05:19:28;;;;;;;20.20;9.37;;;;;;;15.62;76.76;100718.59;4991157;28;20243;-71
2023/10/11 05:21:58;;;;;;;21.13;9.53;;;;;;;15.61;77.10;100730.28;4984976;28;20664;-72
2023/10/11 05:24:44;;;;;;;26.97;9.87;;;;;;;15.74;76.41;100725.22;4988994;28;20249;-74
2023/10/11 05:27:39;;;;;;;20.17;9.07;;;;;;;15.70;76.29;100739.94;4991403;28;20205;-77
2023/10/11 05:30:13;;;;;;;20.43;8.53;;;;;;;15.83;75.72;100731.34;4985991;28;20198;-74
2023/10/11 05:32:49;;;;;;;24.30;9.67;;;;;;;15.94;75.24;100734.44;4987897;28;20198;-72
2023/10/11 05:35:43;;;;;;;20.13;9.23;;;;;;;15.86;75.25;100734.50;4979938;28;20214;-67
2023/10/11 05:52:25;;;;;;;28.03;10.00;;;;;;;15.38;78.08;100747.06;4978084;28;20669;-66
2023/10/11 05:54:54;;;;;;;23.83;9.60;;;;;;;15.32;78.34;100755.75;4977529;28;20211;-67
2023/10/11 05:57:23;;;;;;;21.87;8.87;;;;;;;15.29;78.65;100765.97;4975086;28;20281;-66
2023/10/11 05:59:51;;;;;;;22.00;9.23;;;;;;;15.28;78.52;100751.78;4979514;28;20323;-67
2023/10/11 06:02:22;;;;;;;21.03;9.70;;;;;;;15.28;78.69;100749.09;4978656;28;20214;-69
2023/10/11 06:04:51;;;;;;;23.23;9.90;;;;;;;15.37;78.66;100742.72;4964289;28;20304;-67
2023/10/11 06:14:36;;;;;;;24.43;9.20;;;;;;;15.39;78.56;100731.88;5045675;28;20207;-73
2023/10/11 06:38:13;;;;;;;25.30;9.07;;;;;;;15.47;77.93;100753.22;4937255;28;20596;-73
2023/10/11 06:44:52;;;;;;;21.90;8.57;;;;;;;15.68;77.11;100766.84;4832248;29;20291;-73
2023/10/11 06:51:24;;;;;;;17.23;8.33;;;;;;;15.67;77.25;100767.84;4859504;29;20704;-72
2023/10/11 06:57:39;;;;;;;23.17;8.43;;;;;;;15.70;77.11;100774.69;4888969;29;20216;-73
2023/10/11 07:31:17;;;;;;;17.20;8.43;;;;;;;16.38;72.26;100777.47;5018655;28;20188;-73
2023/10/11 07:40:34;;;;;;;20.23;8.60;;;;;;;16.61;71.39;100790.91;5020246;28;20242;-73
2023/10/11 07:46:43;;;;;;;23.97;9.63;;;;;;;16.75;71.25;100787.41;5017568;28;20679;-73
2023/10/11 07:49:45;;;;;;;23.90;8.00;;;;;;;16.82;70.64;100779.47;5018049;28;20216;-72
2023/10/11 07:55:12;;;;;;;21.87;8.83;;;;;;;16.92;70.95;100772.03;5018393;28;20202;-73
2023/10/11 07:58:32;;;;;;;17.10;7.87;;;;;;;17.06;69.73;100775.75;5020447;28;20205;-74
2023/10/11 08:01:30;;;;;;;18.20;8.17;;;;;;;17.13;69.64;100779.38;5000350;28;20205;-73
2023/10/11 08:03:59;;;;;;;21.00;7.70;;;;;;;17.26;68.84;100782.22;5015929;28;20197;-73
2023/10/11 08:07:16;;;;;;;17.20;7.60;;;;;;;17.32;69.04;100778.00;5015560;28;20303;-73
2023/10/11 08:09:52;;;;;;;19.00;8.07;;;;;;;17.39;68.33;100766.34;5018866;28;20205;-73
2023/10/11 08:12:25;;;;;;;15.27;7.90;;;;;;;17.41;68.93;100772.38;5019030;28;20228;-73
2023/10/11 08:15:22;;;;;;;21.40;8.57;;;;;;;17.57;68.29;100774.84;5017528;28;20667;-76
2023/10/11 08:17:56;;;;;;;21.67;7.73;;;;;;;17.63;68.08;100781.34;5015750;28;20215;-71
2023/10/11 08:20:30;;;;;;;17.40;8.37;;;;;;;17.75;67.73;100784.41;5017519;28;20206;-73
2023/10/11 08:23:08;;;;;;;21.80;7.90;;;;;;;17.92;66.92;100781.31;5016631;28;20205;-71
2023/10/11 08:26:07;;;;;;;18.00;7.57;;;;;;;18.13;65.33;100788.56;5015640;28;20220;-72
2023/10/11 08:28:48;;;;;;;15.77;6.87;;;;;;;18.13;65.92;100782.34;5018697;28;20212;-71
2023/10/11 08:31:35;;;;;;;18.47;7.20;;;;;;;18.32;65.72;100773.69;5017716;28;20209;-72
2023/10/11 08:34:35;;;;;;;20.57;7.60;;;;;;;18.52;64.48;100779.25;5014689;28;20209;-73
2023/10/11 08:41:00;;;;;;;16.83;6.73;;;;;;;19.14;61.85;100782.91;5018267;28;20275;-73
2023/10/11 08:43:32;;;;;;;19.67;6.93;;;;;;;19.23;61.88;100780.06;5016159;28;20234;-73
2023/10/11 08:46:11;;;;;;;17.03;6.97;;;;;;;19.34;61.88;100774.16;5016146;28;20283;-75
2023/10/11 08:48:48;;;;;;;14.63;6.50;;;;;;;19.76;60.28;100773.97;5018106;28;20287;-74
2023/10/11 08:51:48;;;;;;;15.40;6.13;;;;;;;20.20;59.10;100794.22;4984868;28;20206;-72
2023/10/11 08:54:25;;;;;;;16.27;6.70;;;;;;;20.84;57.17;100782.94;5015594;28;20208;-74
2023/10/11 08:57:13;;;;;;;18.03;6.33;;;;;;;21.66;55.03;100774.28;5015426;28;20236;-73
2023/10/11 09:00:02;;;;;;;27.40;6.60;;;;;;;22.67;51.08;100779.78;5016215;28;20212;-74
2023/10/11 09:02:34;;;;;;;18.70;6.18;;;;;;;24.69;46.29;100768.72;5014723;28;20205;-74
2023/10/11 09:05:06;;;;;;;12.50;5.50;;;;;;;24.79;45.25;100768.97;5015234;28;20204;-72
2023/10/11 09:07:45;;;;;;;22.15;6.82;;;;;;;24.35;46.36;100767.59;5018633;28;20229;-73
2023/10/11 09:10:27;;;;;;;22.60;6.22;;;;;;;23.70;47.41;100766.56;5017133;28;20525;-72
2023/10/11 09:13:12;;;;;;;15.52;5.70;;;;;;;23.26;48.34;100761.19;5015777;28;20212;-73
2023/10/11 09:15:57;;;;;;;25.75;6.30;;;;;;;23.01;49.07;100760.41;4996188;28;20497;-73
2023/10/11 09:18:34;;;;;;;21.90;5.95;;;;;;;22.84;49.47;100745.78;5016674;28;20298;-76
2023/10/11 09:24:41;;;;;;;18.65;5.45;;;;;;;22.52;50.23;100748.50;5019524;28;20455;-73
2023/10/11 09:27:25;;;;;;;20.92;6.53;;;;;;;22.47;50.72;100755.63;5014388;28;20232;-73
2023/10/11 09:30:26;;;;;;;23.65;5.95;;;;;;;22.49;50.69;100748.94;4994262;28;20595;-75
2023/10/11 09:36:25;;;;;;;22.88;5.75;;;;;;;22.53;51.25;100750.16;5015892;28;20283;-71
2023/10/11 09:42:25;;;;;;;19.50;5.53;;;;;;;23.28;49.57;100750.13;4961957;28;20762;-73
2023/10/11 09:44:57;;;;;;;16.38;5.20;;;;;;;23.23;49.79;100739.16;4967166;28;20217;-72
2023/10/11 09:47:31;;;;;;;18.88;5.63;;;;;;;23.00;50.55;100738.97;5014545;28;21021;-72
2023/10/11 09:50:02;;;;;;;23.00;5.95;;;;;;;23.18;50.15;100747.13;5017052;28;20193;-71
2023/10/11 09:52:37;;;;;;;18.73;5.90;;;;;;;23.34;50.01;100746.53;5018631;28;20650;-71
2023/10/11 09:55:17;;;;;;;21.77;5.45;;;;;;;23.31;49.75;100749.66;5015696;28;20205;-72
2023/10/11 09:58:18;;;;;;;21.38;5.78;;;;;;;23.14;50.13;100745.91;4998240;28;20213;-72
2023/10/11 10:01:32;;;;;;;24.30;6.80;;;;;;;23.10;50.63;100747.41;4971627;28;20203;-72
2023/10/11 10:04:05;;;;;;;25.67;7.40;;;;;;;24.76;46.93;100736.88;4972463;28;20234;-73
2023/10/11 10:10:41;;;;;;;23.02;5.85;;;;;;;23.86;48.69;100744.25;4973983;28;20238;-71
2023/10/11 10:13:43;;;;;;;19.67;5.65;;;;;;;23.58;49.66;100748.34;4965507;28;20199;-72
2023/10/11 10:16:45;;;;;;;14.50;6.93;;;;;;;23.31;50.63;100749.66;4969703;28;20218;-71
2023/10/11 10:23:32;;;;;;;18.52;6.35;;;;;;;23.46;50.08;100744.75;4950035;28;20211;-72
2023/10/11 10:26:41;;;;;;;17.92;5.80;;;;;;;23.59;49.73;100738.34;4969101;28;20216;-73
2023/10/11 10:29:54;;;;;;;22.30;6.70;;;;;;;23.75;49.42;100728.81;5014190;28;20213;-73
2023/10/11 10:32:24;;;;;;;20.33;6.15;;;;;;;23.73;49.55;100725.50;4999490;28;20205;-72
2023/10/11 10:50:21;;;;;;;13.30;5.68;;;;;;;24.03;49.78;100701.94;4869116;29;20351;-72
2023/10/11 10:53:24;;;;;;;17.85;5.93;;;;;;;23.97;50.39;100700.97;4937082;28;20203;-73
2023/10/11 11:07:44;;;;;;;15.93;5.70;;;;;;;24.18;50.14;100682.56;4927855;28;20273;-72
2023/10/11 11:14:59;;;;;;;20.20;5.20;;;;;;;24.60;47.82;100681.47;4959795;28;20221;-73
2023/10/11 11:18:26;;;;;;;16.88;4.97;;;;;;;25.16;46.73;100671.91;4902974;28;20216;-72
2023/10/11 11:25:29;;;;;;;17.98;5.38;;;;;;;26.66;43.16;100670.59;4982517;28;20221;-73
2023/10/11 11:36:30;;;;;;;17.85;5.28;;;;;;;27.55;40.45;100654.97;4944996;28;20212;-73
2023/10/11 11:39:32;;;;;;;17.88;4.95;;;;;;;27.26;41.06;100647.00;5019194;28;20209;-72
2023/10/11 11:42:19;;;;;;;19.73;4.72;;;;;;;27.16;41.21;100644.16;5018740;28;20233;-73
2023/10/11 11:44:49;;;;;;;18.00;5.20;;;;;;;26.98;41.49;100651.78;5019034;28;23152;-73
2023/10/11 11:47:23;;;;;;;14.35;5.07;;;;;;;26.84;42.03;100643.94;5017161;28;20272;-73
2023/10/11 11:50:18;;;;;;;;;;;;;;;;;;;;;
2023/10/11 11:53:11;;;;;;;16.48;4.55;;;;;;;26.47;42.17;100632.81;5013258;28;20282;-74
2023/10/11 11:55:40;;;;;;;16.10;4.35;;;;;;;26.52;41.89;100635.59;5018562;28;20256;-73
2023/10/11 11:58:11;;;;;;;13.07;4.80;;;;;;;26.28;42.29;100642.31;5014860;28;20220;-73
2023/10/11 12:01:08;;;;;;;14.20;4.93;;;;;;;26.08;42.13;100633.78;5017981;28;20748;-74
2023/10/11 12:03:53;;;;;;;18.25;4.65;;;;;;;26.02;41.90;100634.78;5018166;28;20198;-74
2023/10/11 12:06:38;;;;;;;15.63;4.90;;;;;;;26.08;40.44;100633.78;5018036;28;20239;-74
2023/10/11 12:12:31;;;;;;;15.73;4.25;;;;;;;25.95;40.75;100625.97;4975547;28;20983;-73
2023/10/11 12:15:21;;;;;;;16.58;4.03;;;;;;;25.81;40.40;100625.44;4997492;28;20204;-76
2023/10/11 12:17:54;;;;;;;13.98;4.13;;;;;;;25.66;40.28;100619.72;5015327;28;20699;-74
2023/10/11 12:20:33;;;;;;;16.23;4.82;;;;;;;25.51;40.63;100622.94;5014883;28;20193;-73
2023/10/11 12:23:10;;;;;;;15.40;4.18;;;;;;;25.69;39.92;100620.03;5016053;28;20201;-74
2023/10/11 12:25:47;;;;;;;10.15;4.00;;;;;;;25.96;39.65;100630.28;5014884;28;20208;-74
2023/10/11 12:28:16;;;;;;;17.40;4.93;;;;;;;26.13;39.69;100614.81;5014162;28;20228;-74
2023/10/11 12:30:53;;;;;;;16.90;4.70;;;;;;;26.58;39.08;100607.41;5014679;28;20209;-73
2023/10/11 12:33:23;;;;;;;17.58;5.05;;;;;;;27.23;37.67;100603.94;5015740;28;20205;-74
2023/10/11 12:36:00;;;;;;;12.70;4.80;;;;;;;27.57;36.36;100601.06;5016664;28;20201;-74
2023/10/11 12:38:36;;;;;;;19.52;4.65;;;;;;;28.26;34.43;100606.63;5015812;28;20292;-73
2023/10/11 12:41:07;;;;;;;14.93;4.85;;;;;;;28.93;33.98;100595.88;5016679;28;20231;-74
2023/10/11 12:43:39;;;;;;;14.90;4.40;;;;;;;29.54;32.83;100607.84;5015618;28;20220;-73
2023/10/11 12:46:11;;;;;;;23.10;5.18;;;;;;;28.99;34.03;100600.25;5015838;28;20200;-74
2023/10/11 12:48:54;;;;;;;19.42;4.43;;;;;;;28.16;35.39;100595.59;5016662;28;20262;-74
2023/10/11 12:52:17;;;;;;;16.70;5.07;;;;;;;27.42;36.15;100593.53;5017861;28;20196;-73
2023/10/11 12:54:57;;;;;;;;;;;;;;;;;;;;;
2023/10/11 13:01:11;;;;;;;14.05;5.15;;;;;;;26.17;38.75;100583.38;5015749;28;20558;-72
2023/10/11 13:04:17;;;;;;;13.50;4.25;;;;;;;26.01;38.95;100590.47;5018513;28;20209;-74
2023/10/11 13:06:50;;;;;;;15.88;4.55;;;;;;;25.85;39.39;100589.41;5013475;28;20205;-73
2023/10/11 13:09:23;;;;;;;17.20;4.38;;;;;;;25.70;39.29;100589.09;5015683;28;20739;-74
2023/10/11 13:11:58;;;;;;;15.07;4.05;;;;;;;25.58;39.01;100588.34;5014748;28;20287;-73
2023/10/11 13:14:26;;;;;;;11.25;4.05;;;;;;;25.50;39.32;100583.31;5014568;28;20947;-73
2023/10/11 13:20:55;;;;;;;14.05;4.50;;;;;;;25.23;39.62;100574.09;5014553;28;20219;-73
2023/10/11 13:24:04;;;;;;;;;;;;;;;;;;;;;
2023/10/11 13:26:58;;;;;;;20.45;4.60;;;;;;;25.09;40.32;100566.22;5009167;28;20239;-73
2023/10/11 13:29:36;;;;;;;13.68;4.78;;;;;;;25.18;39.51;100563.13;5014422;28;20239;-73
2023/10/11 13:55:33;;;;;;;;;;;;;;;;;;;;;
2023/10/11 13:58:45;;;;;;;13.05;4.30;;;;;;;24.93;40.09;100541.75;4905511;28;20338;-74
2023/10/11 14:28:43;;;;;;;19.17;4.15;;;;;;;24.86;40.36;100511.19;4901141;28;20322;-73
2023/10/11 14:42:21;;;;;;;14.85;4.47;;;;;;;24.75;40.29;100499.31;4892362;28;20728;-74
2023/10/11 14:45:23;;;;;;;14.38;4.70;;;;;;;24.69;40.83;100506.53;4942534;28;20583;-73
2023/10/11 14:52:44;;;;;;;17.85;4.03;;;;;;;24.56;40.85;100495.94;4889735;29;20272;-73
2023/10/11 14:59:38;;;;;;;12.18;4.25;;;;;;;24.49;41.45;100489.81;5020405;28;20660;-76
2023/10/11 15:06:19;;;;;;;9.75;4.15;;;;;;;24.42;42.17;100485.59;4953483;28;20210;-74
2023/10/11 15:09:52;;;;;;;20.55;8.30;;;;;;;24.37;42.39;100492.53;4941675;28;21053;-71
2023/10/11 15:20:30;;;;;;;15.75;4.95;;;;;;;24.26;43.43;100487.16;4952091;28;20262;-74
2023/10/11 15:23:53;;;;;;;11.90;4.03;;;;;;;24.20;43.79;100482.63;4957096;28;20219;-72
2023/10/11 15:27:01;;;;;;;15.15;4.88;;;;;;;24.12;44.12;100483.81;4956466;28;20321;-73
2023/10/11 16:04:12;;;;;;;15.48;4.43;;;;;;;23.72;46.77;100463.94;4837865;29;20305;-77
2023/10/11 16:29:08;;;;;;;;;;;;;;;;;;;;;
2023/10/11 16:54:26;;;;;;;14.25;4.53;;;;;;;22.95;49.00;100455.72;5019605;28;20205;-72
2023/10/11 16:57:24;;;;;;;10.57;4.20;;;;;;;22.88;48.94;100454.97;4997167;28;20216;-72
2023/10/11 17:23:00;;;;;;;18.10;4.45;;;;;;;22.49;50.54;100459.00;4912812;28;20289;-73
2023/10/11 17:34:09;;;;;;;24.08;4.90;;;;;;;22.40;50.43;100457.66;4974149;28;20788;-74
2023/10/11 17:51:52;;;;;;;15.10;4.85;;;;;;;22.28;50.40;100467.53;4946954;28;20563;-76
2023/10/11 18:02:27;;;;;;;16.15;5.05;;;;;;;22.26;50.68;100464.22;4845872;29;20308;-73
2023/10/11 18:34:43;;;;;;;;;;;;;;;;;;;;;
2023/10/11 18:51:34;;;;;;;21.90;5.97;;;;;;;22.07;51.14;100475.06;4675824;30;20234;-75
2023/10/11 19:38:26;;;;;;;16.88;5.25;;;;;;;21.71;51.53;100470.38;4828268;28;20712;-72
2023/10/11 19:41:54;;;;;;;18.88;4.72;;;;;;;21.71;51.53;100461.44;4928521;28;20615;-72
2023/10/11 19:56:07;;;;;;;15.37;4.60;;;;;;;21.43;52.00;100461.03;4817343;29;20268;-72
2023/10/11 20:03:01;;;;;;;16.30;5.60;;;;;;;21.28;53.02;100454.09;4737474;29;20645;-73
2023/10/11 20:06:46;;;;;;;18.80;5.10;;;;;;;21.27;53.09;100454.31;4815278;29;20825;-73
2023/10/11 20:10:01;;;;;;;17.47;5.03;;;;;;;21.29;53.12;100452.19;4853184;29;20777;-72
2023/10/11 20:16:47;;;;;;;11.93;4.43;;;;;;;21.17;53.85;100446.72;4898855;29;20216;-74
2023/10/11 20:35:06;;;;;;;17.43;4.40;;;;;;;21.09;54.15;100433.47;4824579;29;21353;-74
2023/10/11 23:29:58;;;;;;;12.47;5.87;;;;;;;19.64;63.56;100404.34;4790544;29;20246;-75
2023/10/11 23:33:51;;;;;;;12.03;4.70;;;;;;;19.67;63.31;100406.63;4857302;28;20226;-74
